sensor_id;sensor_type;location;lat;lon;timestamp;pressure;altitude;pressure_sealevel;temperature;humidity
34241;BME280;20503;50.200;19.508;2023-11-21T00:01:00;100305.20;;;9.41;73.85
34241;BME280;20503;50.200;19.508;2023-11-21T00:02:11;100294.64;;;9.59;74.07
34241;BME280;20503;50.200;19.508;2023-11-21T00:03:15;100307.05;;;9.71;73.34
34241;BME280;20503;50.200;19.508;2023-11-21T00:04:20;100307.38;;;9.78;72.66
34241;BME280;20503;50.200;19.508;2023-11-21T00:05:23;100301.58;;;9.82;72.75
34241;BME280;20503;50.200;19.508;2023-11-21T00:06:26;100296.89;;;9.54;73.91
34241;BME280;20503;50.200;19.508;2023-11-21T00:07:28;100292.80;;;9.59;73.28
34241;BME280;20503;50.200;19.508;2023-11-21T00:08:32;100298.42;;;9.26;73.95
34241;BME280;20503;50.200;19.508;2023-11-21T00:09:37;100299.41;;;9.46;73.80
34241;BME280;20503;50.200;19.508;2023-11-21T00:10:45;100313.20;;;9.52;74.11
34241;BME280;20503;50.200;19.508;2023-11-21T00:11:47;100300.26;;;9.77;73.48
34241;BME280;20503;50.200;19.508;2023-11-21T00:12:51;100310.38;;;9.54;73.21
34241;BME280;20503;50.200;19.508;2023-11-21T00:13:57;100310.61;;;9.72;73.45
34241;BME280;20503;50.200;19.508;2023-11-21T00:15:00;100309.82;;;9.81;72.85
34241;BME280;20503;50.200;19.508;2023-11-21T00:16:14;100302.77;;;9.99;72.30
34241;BME280;20503;50.200;19.508;2023-11-21T00:17:17;100305.45;;;9.89;72.52
34241;BME280;20503;50.200;19.508;2023-11-21T00:18:20;100310.00;;;9.89;72.59
34241;BME280;20503;50.200;19.508;2023-11-21T00:19:22;100317.18;;;10.09;72.21
34241;BME280;20503;50.200;19.508;2023-11-21T00:20:25;100310.17;;;9.97;71.90
34241;BME280;20503;50.200;19.508;2023-11-21T00:21:29;100309.67;;;9.82;72.68
34241;BME280;20503;50.200;19.508;2023-11-21T00:22:32;100308.73;;;9.93;72.92
34241;BME280;20503;50.200;19.508;2023-11-21T00:23:34;100311.81;;;9.88;72.60
34241;BME280;20503;50.200;19.508;2023-11-21T00:24:38;100313.98;;;9.95;72.92
34241;BME280;20503;50.200;19.508;2023-11-21T00:25:42;100314.08;;;9.83;72.56
34241;BME280;20503;50.200;19.508;2023-11-21T00:26:46;100311.31;;;9.43;74.17
34241;BME280;20503;50.200;19.508;2023-11-21T00:27:51;100308.75;;;9.42;74.04
34241;BME280;20503;50.200;19.508;2023-11-21T00:28:53;100308.72;;;9.62;73.40
34241;BME280;20503;50.200;19.508;2023-11-21T00:29:57;100313.20;;;9.52;73.85
34241;BME280;20503;50.200;19.508;2023-11-21T00:31:00;100313.76;;;9.25;74.95
34241;BME280;20503;50.200;19.508;2023-11-21T00:32:04;100319.36;;;9.64;73.58
34241;BME280;20503;50.200;19.508;2023-11-21T00:33:08;100316.68;;;9.95;72.88
34241;BME280;20503;50.200;19.508;2023-11-21T00:34:13;100308.41;;;9.86;72.74
34241;BME280;20503;50.200;19.508;2023-11-21T00:35:44;100324.27;;;9.80;72.79
34241;BME280;20503;50.200;19.508;2023-11-21T00:36:48;100311.83;;;9.58;73.63
34241;BME280;20503;50.200;19.508;2023-11-21T00:37:52;100314.63;;;9.56;73.52
34241;BME280;20503;50.200;19.508;2023-11-21T00:38:54;100310.20;;;9.46;73.74
34241;BME280;20503;50.200;19.508;2023-11-21T00:39:58;100318.98;;;9.48;73.63
34241;BME280;20503;50.200;19.508;2023-11-21T00:41:01;100314.77;;;9.55;73.45
34241;BME280;20503;50.200;19.508;2023-11-21T00:42:24;100326.05;;;9.18;74.90
34241;BME280;20503;50.200;19.508;2023-11-21T00:43:28;100329.18;;;9.23;74.25
34241;BME280;20503;50.200;19.508;2023-11-21T00:44:30;100316.90;;;9.30;74.27
34241;BME280;20503;50.200;19.508;2023-11-21T00:45:35;100317.03;;;9.50;74.08
34241;BME280;20503;50.200;19.508;2023-11-21T00:46:38;100317.48;;;9.55;74.07
34241;BME280;20503;50.200;19.508;2023-11-21T00:47:42;100320.55;;;9.71;73.31
34241;BME280;20503;50.200;19.508;2023-11-21T00:48:45;100324.16;;;9.81;72.88
34241;BME280;20503;50.200;19.508;2023-11-21T00:49:47;100326.30;;;9.57;73.73
34241;BME280;20503;50.200;19.508;2023-11-21T00:50:51;100324.82;;;9.74;73.07
34241;BME280;20503;50.200;19.508;2023-11-21T00:51:55;100317.70;;;9.73;72.90
34241;BME280;20503;50.200;19.508;2023-11-21T00:52:59;100314.55;;;9.68;72.27
34241;BME280;20503;50.200;19.508;2023-11-21T00:54:04;100307.65;;;9.75;72.78
34241;BME280;20503;50.200;19.508;2023-11-21T00:55:09;100314.00;;;9.43;73.17
34241;BME280;20503;50.200;19.508;2023-11-21T00:56:14;100324.65;;;9.66;73.62
34241;BME280;20503;50.200;19.508;2023-11-21T00:57:43;100324.13;;;9.51;73.56
34241;BME280;20503;50.200;19.508;2023-11-21T00:58:49;100323.06;;;9.63;73.85
34241;BME280;20503;50.200;19.508;2023-11-21T00:59:54;100319.13;;;9.46;73.85
34241;BME280;20503;50.200;19.508;2023-11-21T01:00:56;100316.41;;;9.67;72.77
34241;BME280;20503;50.200;19.508;2023-11-21T01:02:00;100315.33;;;9.79;72.64
34241;BME280;20503;50.200;19.508;2023-11-21T01:03:04;100322.98;;;9.74;72.75
34241;BME280;20503;50.200;19.508;2023-11-21T01:04:08;100315.55;;;9.67;72.67
34241;BME280;20503;50.200;19.508;2023-11-21T01:05:13;100311.48;;;9.51;73.51
34241;BME280;20503;50.200;19.508;2023-11-21T01:06:15;100313.37;;;9.81;72.73
34241;BME280;20503;50.200;19.508;2023-11-21T01:07:19;100315.57;;;9.97;72.17
34241;BME280;20503;50.200;19.508;2023-11-21T01:08:22;100323.95;;;10.04;72.04
34241;BME280;20503;50.200;19.508;2023-11-21T01:09:27;100316.66;;;9.85;72.08
34241;BME280;20503;50.200;19.508;2023-11-21T01:10:52;100327.07;;;9.99;71.74
34241;BME280;20503;50.200;19.508;2023-11-21T01:11:56;100319.80;;;9.90;71.48
34241;BME280;20503;50.200;19.508;2023-11-21T01:12:59;100319.12;;;9.98;71.43
34241;BME280;20503;50.200;19.508;2023-11-21T01:14:06;100313.32;;;10.12;71.08
34241;BME280;20503;50.200;19.508;2023-11-21T01:15:11;100309.92;;;10.10;70.72
34241;BME280;20503;50.200;19.508;2023-11-21T01:16:17;100311.72;;;10.00;71.62
34241;BME280;20503;50.200;19.508;2023-11-21T01:17:19;100312.57;;;10.00;71.65
34241;BME280;20503;50.200;19.508;2023-11-21T01:18:24;100315.42;;;9.99;70.68
34241;BME280;20503;50.200;19.508;2023-11-21T01:19:29;100323.10;;;9.73;71.65
34241;BME280;20503;50.200;19.508;2023-11-21T01:20:32;100315.29;;;9.70;72.19
34241;BME280;20503;50.200;19.508;2023-11-21T01:21:36;100310.38;;;9.54;72.38
34241;BME280;20503;50.200;19.508;2023-11-21T01:22:40;100307.05;;;9.71;71.32
34241;BME280;20503;50.200;19.508;2023-11-21T01:23:43;100309.84;;;9.91;71.93
34241;BME280;20503;50.200;19.508;2023-11-21T01:24:44;100311.12;;;9.86;72.34
34241;BME280;20503;50.200;19.508;2023-11-21T01:25:47;100296.96;;;10.04;71.32
34241;BME280;20503;50.200;19.508;2023-11-21T01:26:50;100308.41;;;9.86;71.68
34241;BME280;20503;50.200;19.508;2023-11-21T01:27:53;100318.64;;;9.93;71.36
34241;BME280;20503;50.200;19.508;2023-11-21T01:29:05;100321.13;;;10.05;71.18
34241;BME280;20503;50.200;19.508;2023-11-21T01:30:23;100316.27;;;9.99;71.12
34241;BME280;20503;50.200;19.508;2023-11-21T01:31:27;100313.98;;;9.95;71.39
34241;BME280;20503;50.200;19.508;2023-11-21T01:32:30;100312.54;;;9.91;71.52
34241;BME280;20503;50.200;19.508;2023-11-21T01:33:33;100311.93;;;9.77;71.25
34241;BME280;20503;50.200;19.508;2023-11-21T01:34:36;100310.85;;;9.89;71.62
34241;BME280;20503;50.200;19.508;2023-11-21T01:35:39;100308.72;;;9.62;72.26
34241;BME280;20503;50.200;19.508;2023-11-21T01:36:43;100309.82;;;9.81;71.89
34241;BME280;20503;50.200;19.508;2023-11-21T01:37:56;100319.05;;;9.88;71.79
34241;BME280;20503;50.200;19.508;2023-11-21T01:39:00;100310.20;;;10.07;71.41
34241;BME280;20503;50.200;19.508;2023-11-21T01:40:05;100320.55;;;10.02;71.52
34241;BME280;20503;50.200;19.508;2023-11-21T01:41:14;100312.69;;;9.89;71.39
34241;BME280;20503;50.200;19.508;2023-11-21T01:42:17;100308.31;;;9.67;71.96
34241;BME280;20503;50.200;19.508;2023-11-21T01:43:21;100310.70;;;9.39;72.96
34241;BME280;20503;50.200;19.508;2023-11-21T01:44:23;100304.20;;;9.42;73.21
34241;BME280;20503;50.200;19.508;2023-11-21T01:45:26;100310.12;;;9.57;72.90
34241;BME280;20503;50.200;19.508;2023-11-21T01:46:32;100308.52;;;9.12;74.14
34241;BME280;20503;50.200;19.508;2023-11-21T01:47:36;100312.41;;;8.99;74.89
34241;BME280;20503;50.200;19.508;2023-11-21T01:48:44;100319.39;;;9.43;73.29
34241;BME280;20503;50.200;19.508;2023-11-21T01:49:48;100316.37;;;9.57;73.40
34241;BME280;20503;50.200;19.508;2023-11-21T01:50:51;100322.17;;;9.53;73.38
34241;BME280;20503;50.200;19.508;2023-11-21T01:51:55;100311.45;;;9.42;73.45
34241;BME280;20503;50.200;19.508;2023-11-21T01:52:58;100322.74;;;9.35;73.52
34241;BME280;20503;50.200;19.508;2023-11-21T01:54:00;100319.34;;;9.33;73.09
34241;BME280;20503;50.200;19.508;2023-11-21T01:55:09;100307.60;;;9.44;73.30
34241;BME280;20503;50.200;19.508;2023-11-21T01:56:13;100315.26;;;9.18;74.27
34241;BME280;20503;50.200;19.508;2023-11-21T01:57:18;100311.31;;;9.43;74.01
34241;BME280;20503;50.200;19.508;2023-11-21T01:58:23;100317.88;;;9.50;73.36
34241;BME280;20503;50.200;19.508;2023-11-21T01:59:26;100309.52;;;9.11;74.32
34241;BME280;20503;50.200;19.508;2023-11-21T02:00:30;100310.06;;;9.26;73.99
34241;BME280;20503;50.200;19.508;2023-11-21T02:01:35;100302.22;;;9.44;72.92
34241;BME280;20503;50.200;19.508;2023-11-21T02:02:38;100316.24;;;9.38;73.41
34241;BME280;20503;50.200;19.508;2023-11-21T02:03:41;100305.97;;;9.32;73.79
34241;BME280;20503;50.200;19.508;2023-11-21T02:04:44;100300.99;;;9.06;73.17
34241;BME280;20503;50.200;19.508;2023-11-21T02:05:47;100315.24;;;8.97;74.85
34241;BME280;20503;50.200;19.508;2023-11-21T02:06:51;100314.32;;;9.08;73.97
34241;BME280;20503;50.200;19.508;2023-11-21T02:07:56;100317.66;;;9.00;74.89
34241;BME280;20503;50.200;19.508;2023-11-21T02:09:00;100314.91;;;9.32;73.82
34241;BME280;20503;50.200;19.508;2023-11-21T02:10:04;100310.98;;;9.57;73.04
34241;BME280;20503;50.200;19.508;2023-11-21T02:11:07;100318.85;;;9.28;73.87
34241;BME280;20503;50.200;19.508;2023-11-21T02:12:10;100320.79;;;9.37;73.36
34241;BME280;20503;50.200;19.508;2023-11-21T02:13:13;100317.16;;;9.06;74.18
34241;BME280;20503;50.200;19.508;2023-11-21T02:14:17;100318.84;;;8.86;75.62
34241;BME280;20503;50.200;19.508;2023-11-21T02:15:23;100315.43;;;8.84;75.16
34241;BME280;20503;50.200;19.508;2023-11-21T02:16:31;100332.08;;;9.10;74.95
34241;BME280;20503;50.200;19.508;2023-11-21T02:17:35;100334.58;;;9.44;73.16
34241;BME280;20503;50.200;19.508;2023-11-21T02:18:39;100322.63;;;9.37;73.46
34241;BME280;20503;50.200;19.508;2023-11-21T02:19:46;100322.23;;;9.42;73.07
34241;BME280;20503;50.200;19.508;2023-11-21T02:20:52;100326.77;;;9.41;73.92
34241;BME280;20503;50.200;19.508;2023-11-21T02:22:03;100324.93;;;9.42;73.29
34241;BME280;20503;50.200;19.508;2023-11-21T02:23:07;100320.02;;;9.56;73.21
34241;BME280;20503;50.200;19.508;2023-11-21T02:24:08;100312.41;;;9.40;72.36
34241;BME280;20503;50.200;19.508;2023-11-21T02:25:11;100313.41;;;8.98;74.29
34241;BME280;20503;50.200;19.508;2023-11-21T02:26:13;100318.75;;;9.09;74.19
34241;BME280;20503;50.200;19.508;2023-11-21T02:27:16;100318.05;;;8.96;74.47
34241;BME280;20503;50.200;19.508;2023-11-21T02:28:27;100326.83;;;9.09;74.56
34241;BME280;20503;50.200;19.508;2023-11-21T02:29:30;100322.01;;;9.12;74.12
34241;BME280;20503;50.200;19.508;2023-11-21T02:30:35;100317.80;;;8.99;74.30
34241;BME280;20503;50.200;19.508;2023-11-21T02:31:40;100317.03;;;8.76;75.35
34241;BME280;20503;50.200;19.508;2023-11-21T02:33:07;100333.47;;;8.73;75.57
34241;BME280;20503;50.200;19.508;2023-11-21T02:34:09;100306.73;;;8.49;75.58
34241;BME280;20503;50.200;19.508;2023-11-21T02:35:15;100318.87;;;8.75;75.65
34241;BME280;20503;50.200;19.508;2023-11-21T02:36:22;100320.14;;;8.92;75.00
34241;BME280;20503;50.200;19.508;2023-11-21T02:37:25;100311.02;;;8.40;75.98
34241;BME280;20503;50.200;19.508;2023-11-21T02:38:29;100319.68;;;8.55;76.63
34241;BME280;20503;50.200;19.508;2023-11-21T02:39:33;100318.15;;;8.73;76.05
34241;BME280;20503;50.200;19.508;2023-11-21T02:40:37;100321.78;;;8.83;75.81
34241;BME280;20503;50.200;19.508;2023-11-21T02:41:40;100324.43;;;8.95;74.84
34241;BME280;20503;50.200;19.508;2023-11-21T02:42:46;100325.43;;;8.94;74.18
34241;BME280;20503;50.200;19.508;2023-11-21T02:43:48;100324.89;;;9.00;74.32
34241;BME280;20503;50.200;19.508;2023-11-21T02:44:50;100319.23;;;8.82;75.37
34241;BME280;20503;50.200;19.508;2023-11-21T02:45:53;100329.59;;;9.19;73.95
34241;BME280;20503;50.200;19.508;2023-11-21T02:46:55;100327.08;;;9.06;74.37
34241;BME280;20503;50.200;19.508;2023-11-21T02:47:59;100337.61;;;9.09;74.25
34241;BME280;20503;50.200;19.508;2023-11-21T02:49:07;100328.59;;;8.67;75.68
34241;BME280;20503;50.200;19.508;2023-11-21T02:50:11;100335.98;;;8.85;75.37
34241;BME280;20503;50.200;19.508;2023-11-21T02:51:14;100336.44;;;8.58;75.89
34241;BME280;20503;50.200;19.508;2023-11-21T02:52:28;100340.20;;;8.67;75.66
34241;BME280;20503;50.200;19.508;2023-11-21T02:53:32;100326.46;;;8.81;74.76
34241;BME280;20503;50.200;19.508;2023-11-21T02:54:37;100338.16;;;8.92;74.49
34241;BME280;20503;50.200;19.508;2023-11-21T02:55:40;100334.29;;;8.41;76.39
34241;BME280;20503;50.200;19.508;2023-11-21T02:56:44;100340.89;;;8.80;75.99
34241;BME280;20503;50.200;19.508;2023-11-21T02:57:47;100337.91;;;8.95;74.86
34241;BME280;20503;50.200;19.508;2023-11-21T02:58:49;100332.73;;;9.03;74.48
34241;BME280;20503;50.200;19.508;2023-11-21T02:59:51;100332.73;;;9.03;73.51
34241;BME280;20503;50.200;19.508;2023-11-21T03:00:56;100329.78;;;8.74;74.22
34241;BME280;20503;50.200;19.508;2023-11-21T03:01:59;100336.84;;;8.86;74.34
34241;BME280;20503;50.200;19.508;2023-11-21T03:03:22;100339.28;;;8.89;74.80
34241;BME280;20503;50.200;19.508;2023-11-21T03:04:26;100340.81;;;8.71;74.75
34241;BME280;20503;50.200;19.508;2023-11-21T03:05:30;100340.39;;;8.86;74.24
34241;BME280;20503;50.200;19.508;2023-11-21T03:06:33;100337.84;;;8.85;74.64
34241;BME280;20503;50.200;19.508;2023-11-21T03:07:46;100337.69;;;8.86;74.53
34241;BME280;20503;50.200;19.508;2023-11-21T03:08:50;100339.82;;;8.72;75.07
34241;BME280;20503;50.200;19.508;2023-11-21T03:09:52;100344.93;;;8.86;73.99
34241;BME280;20503;50.200;19.508;2023-11-21T03:10:54;100337.41;;;9.22;73.73
34241;BME280;20503;50.200;19.508;2023-11-21T03:12:11;100358.19;;;9.31;72.97
34241;BME280;20503;50.200;19.508;2023-11-21T03:13:18;100336.52;;;9.00;73.68
34241;BME280;20503;50.200;19.508;2023-11-21T03:14:20;100329.84;;;8.51;74.96
34241;BME280;20503;50.200;19.508;2023-11-21T03:15:21;100343.82;;;8.88;75.05
34241;BME280;20503;50.200;19.508;2023-11-21T03:16:24;100339.53;;;8.86;74.94
34241;BME280;20503;50.200;19.508;2023-11-21T03:17:27;100329.87;;;8.83;74.89
34241;BME280;20503;50.200;19.508;2023-11-21T03:18:30;100339.10;;;9.02;74.13
34241;BME280;20503;50.200;19.508;2023-11-21T03:19:34;100338.85;;;9.05;74.07
34241;BME280;20503;50.200;19.508;2023-11-21T03:20:37;100329.99;;;8.82;73.63
34241;BME280;20503;50.200;19.508;2023-11-21T03:21:39;100333.11;;;8.66;75.43
34241;BME280;20503;50.200;19.508;2023-11-21T03:22:43;100339.05;;;8.37;75.89
34241;BME280;20503;50.200;19.508;2023-11-21T03:23:45;100335.34;;;8.61;75.25
34241;BME280;20503;50.200;19.508;2023-11-21T03:25:10;100351.84;;;9.00;74.18
34241;BME280;20503;50.200;19.508;2023-11-21T03:26:13;100338.94;;;8.82;74.48
34241;BME280;20503;50.200;19.508;2023-11-21T03:27:16;100340.45;;;8.96;74.08
34241;BME280;20503;50.200;19.508;2023-11-21T03:28:21;100343.12;;;8.75;74.99
34241;BME280;20503;50.200;19.508;2023-11-21T03:29:25;100339.96;;;8.70;74.47
34241;BME280;20503;50.200;19.508;2023-11-21T03:30:48;100346.52;;;8.88;74.57
34241;BME280;20503;50.200;19.508;2023-11-21T03:31:51;100348.48;;;8.86;74.52
34241;BME280;20503;50.200;19.508;2023-11-21T03:32:54;100331.27;;;8.99;73.10
34241;BME280;20503;50.200;19.508;2023-11-21T03:33:58;100336.38;;;8.81;74.33
34241;BME280;20503;50.200;19.508;2023-11-21T03:35:00;100339.19;;;8.79;74.29
34241;BME280;20503;50.200;19.508;2023-11-21T03:36:06;100347.70;;;8.96;74.02
34241;BME280;20503;50.200;19.508;2023-11-21T03:37:11;100360.48;;;9.14;73.12
34241;BME280;20503;50.200;19.508;2023-11-21T03:38:14;100343.27;;;9.27;73.34
34241;BME280;20503;50.200;19.508;2023-11-21T03:39:17;100348.06;;;9.23;73.10
34241;BME280;20503;50.200;19.508;2023-11-21T03:40:30;100356.98;;;9.03;73.44
34241;BME280;20503;50.200;19.508;2023-11-21T03:41:34;100348.48;;;8.86;74.22
34241;BME280;20503;50.200;19.508;2023-11-21T03:42:40;100345.74;;;8.98;73.49
34241;BME280;20503;50.200;19.508;2023-11-21T03:43:43;100350.67;;;8.93;73.40
34241;BME280;20503;50.200;19.508;2023-11-21T03:44:46;100358.36;;;8.97;73.93
34241;BME280;20503;50.200;19.508;2023-11-21T03:45:54;100362.52;;;9.01;73.87
34241;BME280;20503;50.200;19.508;2023-11-21T03:46:56;100357.34;;;9.30;72.95
34241;BME280;20503;50.200;19.508;2023-11-21T03:48:00;100348.80;;;9.25;72.93
34241;BME280;20503;50.200;19.508;2023-11-21T03:49:04;100356.29;;;9.22;73.14
34241;BME280;20503;50.200;19.508;2023-11-21T03:50:07;100352.97;;;8.97;72.95
34241;BME280;20503;50.200;19.508;2023-11-21T03:51:10;100352.62;;;8.90;74.43
34241;BME280;20503;50.200;19.508;2023-11-21T03:52:12;100349.89;;;9.02;74.02
34241;BME280;20503;50.200;19.508;2023-11-21T03:53:15;100362.91;;;8.97;73.56
34241;BME280;20503;50.200;19.508;2023-11-21T03:54:18;100352.68;;;8.68;74.72
34241;BME280;20503;50.200;19.508;2023-11-21T03:55:32;100356.58;;;8.75;74.52
34241;BME280;20503;50.200;19.508;2023-11-21T03:56:35;100364.55;;;8.77;74.48
34241;BME280;20503;50.200;19.508;2023-11-21T03:57:40;100360.40;;;8.73;73.67
34241;BME280;20503;50.200;19.508;2023-11-21T03:58:43;100360.84;;;8.89;74.31
34241;BME280;20503;50.200;19.508;2023-11-21T03:59:45;100365.91;;;9.03;73.44
34241;BME280;20503;50.200;19.508;2023-11-21T04:00:48;100355.98;;;9.04;73.44
34241;BME280;20503;50.200;19.508;2023-11-21T04:01:56;100352.23;;;8.95;73.58
34241;BME280;20503;50.200;19.508;2023-11-21T04:02:59;100361.08;;;9.18;72.94
34241;BME280;20503;50.200;19.508;2023-11-21T04:04:03;100368.17;;;9.19;72.07
34241;BME280;20503;50.200;19.508;2023-11-21T04:05:05;100366.22;;;9.21;73.38
34241;BME280;20503;50.200;19.508;2023-11-21T04:06:09;100359.07;;;8.99;73.07
34241;BME280;20503;50.200;19.508;2023-11-21T04:07:12;100367.32;;;9.19;72.48
34241;BME280;20503;50.200;19.508;2023-11-21T04:08:14;100362.57;;;8.79;74.48
34241;BME280;20503;50.200;19.508;2023-11-21T04:09:16;100361.79;;;8.88;73.80
34241;BME280;20503;50.200;19.508;2023-11-21T04:10:19;100359.80;;;9.01;73.24
34241;BME280;20503;50.200;19.508;2023-11-21T04:11:24;100363.18;;;8.82;73.56
34241;BME280;20503;50.200;19.508;2023-11-21T04:12:48;100373.07;;;8.93;73.81
34241;BME280;20503;50.200;19.508;2023-11-21T04:13:50;100368.85;;;9.00;73.42
34241;BME280;20503;50.200;19.508;2023-11-21T04:14:52;100369.05;;;8.76;74.49
34241;BME280;20503;50.200;19.508;2023-11-21T04:15:57;100368.75;;;9.02;73.31
34241;BME280;20503;50.200;19.508;2023-11-21T04:17:00;100363.95;;;8.73;73.88
34241;BME280;20503;50.200;19.508;2023-11-21T04:18:03;100364.28;;;8.80;74.03
34241;BME280;20503;50.200;19.508;2023-11-21T04:19:06;100362.91;;;8.53;75.06
34241;BME280;20503;50.200;19.508;2023-11-21T04:20:10;100371.04;;;8.74;73.58
34241;BME280;20503;50.200;19.508;2023-11-21T04:21:23;100371.70;;;8.55;75.08
34241;BME280;20503;50.200;19.508;2023-11-21T04:22:27;100367.71;;;8.82;74.49
34241;BME280;20503;50.200;19.508;2023-11-21T04:23:32;100368.71;;;8.81;74.35
34241;BME280;20503;50.200;19.508;2023-11-21T04:24:34;100363.60;;;8.99;73.77
34241;BME280;20503;50.200;19.508;2023-11-21T04:25:37;100357.72;;;9.05;73.77
34241;BME280;20503;50.200;19.508;2023-11-21T04:26:40;100366.30;;;8.99;73.80
34241;BME280;20503;50.200;19.508;2023-11-21T04:27:43;100363.01;;;8.95;74.15
34241;BME280;20503;50.200;19.508;2023-11-21T04:28:46;100366.05;;;9.02;73.89
34241;BME280;20503;50.200;19.508;2023-11-21T04:29:49;100369.03;;;8.87;73.89
34241;BME280;20503;50.200;19.508;2023-11-21T04:30:51;100367.97;;;9.11;73.20
34241;BME280;20503;50.200;19.508;2023-11-21T04:32:04;100376.91;;;9.11;73.02
34241;BME280;20503;50.200;19.508;2023-11-21T04:33:08;100370.80;;;9.09;73.06
34241;BME280;20503;50.200;19.508;2023-11-21T04:34:13;100366.66;;;9.05;72.86
34241;BME280;20503;50.200;19.508;2023-11-21T04:35:17;100369.94;;;8.77;73.97
34241;BME280;20503;50.200;19.508;2023-11-21T04:36:19;100372.36;;;8.80;74.23
34241;BME280;20503;50.200;19.508;2023-11-21T04:37:22;100370.84;;;8.98;73.45
34241;BME280;20503;50.200;19.508;2023-11-21T04:38:28;100370.23;;;8.51;74.90
34241;BME280;20503;50.200;19.508;2023-11-21T04:39:32;100373.34;;;8.79;75.08
34241;BME280;20503;50.200;19.508;2023-11-21T04:40:34;100380.13;;;9.05;73.80
34241;BME280;20503;50.200;19.508;2023-11-21T04:41:38;100376.19;;;9.09;73.24
34241;BME280;20503;50.200;19.508;2023-11-21T04:43:04;100391.09;;;8.93;73.68
34241;BME280;20503;50.200;19.508;2023-11-21T04:44:09;100377.70;;;8.48;74.66
34241;BME280;20503;50.200;19.508;2023-11-21T04:45:23;100383.52;;;8.75;74.80
34241;BME280;20503;50.200;19.508;2023-11-21T04:46:25;100376.20;;;8.66;74.96
34241;BME280;20503;50.200;19.508;2023-11-21T04:47:29;100373.98;;;8.71;74.81
34241;BME280;20503;50.200;19.508;2023-11-21T04:48:33;100379.84;;;8.76;74.30
34241;BME280;20503;50.200;19.508;2023-11-21T04:49:36;100383.05;;;8.70;74.49
34241;BME280;20503;50.200;19.508;2023-11-21T04:50:41;100381.44;;;9.11;73.30
34241;BME280;20503;50.200;19.508;2023-11-21T04:51:46;100387.25;;;9.27;72.81
34241;BME280;20503;50.200;19.508;2023-11-21T04:52:51;100381.23;;;9.03;73.25
34241;BME280;20503;50.200;19.508;2023-11-21T04:53:54;100384.95;;;9.23;73.06
34241;BME280;20503;50.200;19.508;2023-11-21T04:54:57;100388.08;;;9.07;73.41
34241;BME280;20503;50.200;19.508;2023-11-21T04:56:04;100391.73;;;9.17;72.82
34241;BME280;20503;50.200;19.508;2023-11-21T04:57:07;100388.71;;;8.99;73.25
34241;BME280;20503;50.200;19.508;2023-11-21T04:58:11;100391.02;;;9.04;72.86
34241;BME280;20503;50.200;19.508;2023-11-21T04:59:14;100396.08;;;8.97;73.64
34241;BME280;20503;50.200;19.508;2023-11-21T05:00:18;100393.63;;;8.94;73.97
34241;BME280;20503;50.200;19.508;2023-11-21T05:01:20;100396.08;;;8.97;73.30
34241;BME280;20503;50.200;19.508;2023-11-21T05:02:22;100394.45;;;9.06;73.64
34241;BME280;20503;50.200;19.508;2023-11-21T05:03:24;100396.08;;;9.29;72.81
34241;BME280;20503;50.200;19.508;2023-11-21T05:04:27;100399.59;;;9.09;72.29
34241;BME280;20503;50.200;19.508;2023-11-21T05:05:32;100393.46;;;9.07;73.47
34241;BME280;20503;50.200;19.508;2023-11-21T05:06:36;100396.77;;;9.10;73.14
34241;BME280;20503;50.200;19.508;2023-11-21T05:07:41;100392.26;;;8.23;76.31
34241;BME280;20503;50.200;19.508;2023-11-21T05:08:43;100395.69;;;8.58;75.73
34241;BME280;20503;50.200;19.508;2023-11-21T05:09:45;100390.36;;;8.79;74.78
34241;BME280;20503;50.200;19.508;2023-11-21T05:10:49;100396.37;;;8.72;74.04
34241;BME280;20503;50.200;19.508;2023-11-21T05:12:07;100406.59;;;8.57;75.44
34241;BME280;20503;50.200;19.508;2023-11-21T05:13:08;100395.77;;;8.68;75.73
34241;BME280;20503;50.200;19.508;2023-11-21T05:14:12;100392.56;;;8.85;74.57
34241;BME280;20503;50.200;19.508;2023-11-21T05:15:16;100394.30;;;8.75;73.42
34241;BME280;20503;50.200;19.508;2023-11-21T05:16:19;100401.49;;;8.86;74.50
34241;BME280;20503;50.200;19.508;2023-11-21T05:17:22;100391.28;;;8.57;75.07
34241;BME280;20503;50.200;19.508;2023-11-21T05:18:25;100397.70;;;8.88;74.68
34241;BME280;20503;50.200;19.508;2023-11-21T05:19:32;100394.27;;;8.86;74.78
34241;BME280;20503;50.200;19.508;2023-11-21T05:20:36;100404.59;;;8.70;75.15
34241;BME280;20503;50.200;19.508;2023-11-21T05:21:46;100404.05;;;8.87;74.78
34241;BME280;20503;50.200;19.508;2023-11-21T05:22:50;100408.54;;;8.21;75.71
34241;BME280;20503;50.200;19.508;2023-11-21T05:23:54;100408.04;;;8.27;77.51
34241;BME280;20503;50.200;19.508;2023-11-21T05:25:20;100409.76;;;8.51;76.08
34241;BME280;20503;50.200;19.508;2023-11-21T05:26:23;100398.98;;;8.62;75.71
34241;BME280;20503;50.200;19.508;2023-11-21T05:27:27;100402.91;;;8.47;75.71
34241;BME280;20503;50.200;19.508;2023-11-21T05:28:30;100408.20;;;8.37;76.55
34241;BME280;20503;50.200;19.508;2023-11-21T05:29:52;100414.45;;;8.37;76.80
34241;BME280;20503;50.200;19.508;2023-11-21T05:30:53;100410.59;;;8.74;75.26
34241;BME280;20503;50.200;19.508;2023-11-21T05:31:55;100417.08;;;8.71;74.28
34241;BME280;20503;50.200;19.508;2023-11-21T05:32:56;100410.86;;;8.48;75.46
34241;BME280;20503;50.200;19.508;2023-11-21T05:34:00;100421.24;;;8.64;75.81
34241;BME280;20503;50.200;19.508;2023-11-21T05:35:02;100421.68;;;8.92;75.12
34241;BME280;20503;50.200;19.508;2023-11-21T05:36:04;100412.55;;;8.27;75.30
34241;BME280;20503;50.200;19.508;2023-11-21T05:37:05;100417.13;;;8.49;76.05
34241;BME280;20503;50.200;19.508;2023-11-21T05:38:07;100416.14;;;8.50;76.51
34241;BME280;20503;50.200;19.508;2023-11-21T05:39:09;100429.60;;;8.50;75.83
34241;BME280;20503;50.200;19.508;2023-11-21T05:40:14;100426.91;;;8.50;75.92